createdAt,value
2019-03-06T00:01:29.841Z,97781.41
2019-03-06T00:03:59.871Z,97783.14
2019-03-06T00:06:29.806Z,97783.27
2019-03-06T00:08:59.692Z,97780.89
2019-03-06T00:11:29.909Z,97777.72
2019-03-06T00:13:59.823Z,97776.77
2019-03-06T00:16:29.690Z,97769.55
2019-03-06T00:18:59.834Z,97765.78
2019-03-06T00:21:29.869Z,97765.27
2019-03-06T00:24:00.237Z,97758.28
2019-03-06T00:26:30.226Z,97756.36
2019-03-06T00:29:00.133Z,97758.53
2019-03-06T00:31:30.105Z,97756.92
2019-03-06T00:34:00.238Z,97758.66
2019-03-06T00:36:31.243Z,97761.48
2019-03-06T00:39:01.207Z,97760.46
2019-03-06T00:41:39.360Z,97757.59
2019-03-06T00:44:09.342Z,97756.17
2019-03-06T00:46:39.228Z,97755.88
2019-03-06T00:49:09.374Z,97753.09
2019-03-06T00:51:39.251Z,97760.78
2019-03-06T00:54:09.423Z,97760.64
2019-03-06T00:56:39.294Z,97757.52
2019-03-06T00:59:09.243Z,97759.09
2019-03-06T01:01:39.141Z,97756.15
2019-03-06T01:04:09.020Z,97753.14
2019-03-06T01:06:38.965Z,97746.67
2019-03-06T01:09:10.204Z,97745.15
2019-03-06T01:11:40.078Z,97740.71
2019-03-06T01:14:09.980Z,97738.84
2019-03-06T01:16:39.876Z,97728.91
2019-03-06T01:19:09.996Z,97730.09
2019-03-06T01:21:39.884Z,97720.46
2019-03-06T01:24:09.763Z,97725.73
2019-03-06T01:26:39.815Z,97730.81
2019-03-06T01:29:09.898Z,97722.46
2019-03-06T01:31:39.786Z,97719.68
2019-03-06T01:34:28.696Z,97709.45
2019-03-06T01:37:07.499Z,97715.97
2019-03-06T01:39:59.658Z,97701.71
2019-03-06T01:42:46.964Z,97699.89
2019-03-06T01:45:17.010Z,97698.56
2019-03-06T01:47:47.129Z,97698.48
2019-03-06T01:50:17.409Z,97702.33
2019-03-06T01:52:47.364Z,97697.59
2019-03-06T01:55:17.493Z,97690.42
2019-03-06T01:57:47.390Z,97688.88
2019-03-06T02:00:19.175Z,97686.06
2019-03-06T02:02:49.154Z,97681.49
2019-03-06T02:05:19.249Z,97686.10
2019-03-06T02:07:49.534Z,97690.28
2019-03-06T02:10:19.794Z,97681.25
2019-03-06T02:12:49.672Z,97681.54
2019-03-06T02:15:19.993Z,97676.64
2019-03-06T02:17:50.025Z,97674.59
2019-03-06T02:20:20.058Z,97675.84
2019-03-06T02:22:49.943Z,97667.94
2019-03-06T02:25:19.976Z,97656.20
2019-03-06T02:27:49.874Z,97643.36
2019-03-06T02:30:21.562Z,97640.17
2019-03-06T02:32:51.585Z,97647.85
2019-03-06T02:35:21.774Z,97641.55
2019-03-06T02:37:51.716Z,97628.47
2019-03-06T02:40:21.696Z,97625.36
2019-03-06T02:42:51.601Z,97629.55
2019-03-06T02:45:21.737Z,97632.03
2019-03-06T02:47:51.712Z,97625.78
2019-03-06T02:50:21.810Z,97619.79
2019-03-06T02:52:51.694Z,97620.11
2019-03-06T02:55:22.771Z,97616.08
2019-03-06T02:58:01.113Z,97612.28
2019-03-06T03:00:44.104Z,97617.38
2019-03-06T03:03:29.007Z,97607.00
2019-03-06T03:06:05.221Z,97605.54
2019-03-06T03:08:35.130Z,97611.97
2019-03-06T03:11:05.093Z,97612.75
2019-03-06T03:13:35.042Z,97614.74
2019-03-06T03:16:05.032Z,97611.58
2019-03-06T03:18:34.955Z,97607.21
2019-03-06T03:21:04.911Z,97607.34
2019-03-06T03:23:34.796Z,97608.98
2019-03-06T03:26:04.744Z,97602.81
2019-03-06T03:28:34.671Z,97592.96
2019-03-06T03:31:04.676Z,97576.15
2019-03-06T03:33:34.584Z,97582.42
2019-03-06T03:36:04.506Z,97583.36
2019-03-06T03:38:34.594Z,97582.36
2019-03-06T03:41:04.592Z,97584.42
2019-03-06T03:43:34.791Z,97583.17
2019-03-06T03:46:04.801Z,97582.23
2019-03-06T03:48:34.709Z,97590.50
2019-03-06T03:51:04.633Z,97594.17
2019-03-06T03:53:34.528Z,97587.02
2019-03-06T03:56:04.737Z,97590.00
2019-03-06T03:58:34.617Z,97589.84
2019-03-06T04:01:04.627Z,97586.37
2019-03-06T04:03:34.525Z,97593.42
2019-03-06T04:06:04.500Z,97595.98
2019-03-06T04:08:34.647Z,97596.16
2019-03-06T04:11:04.639Z,97596.83
2019-03-06T04:13:34.556Z,97602.55
2019-03-06T04:16:04.558Z,97598.95
2019-03-06T04:18:34.543Z,97600.53
2019-03-06T04:21:04.652Z,97594.52
2019-03-06T04:23:34.559Z,97598.88
2019-03-06T04:26:04.528Z,97602.64
2019-03-06T04:28:34.411Z,97594.61
2019-03-06T04:31:04.384Z,97591.19
2019-03-06T04:33:34.329Z,97583.03
2019-03-06T04:36:04.231Z,97586.55
2019-03-06T04:38:34.131Z,97594.52
2019-03-06T04:41:04.084Z,97590.50
2019-03-06T04:43:33.973Z,97591.01
2019-03-06T04:46:03.880Z,97594.19
2019-03-06T04:48:33.780Z,97587.74
2019-03-06T04:51:03.687Z,97591.34
2019-03-06T04:53:33.599Z,97580.72
2019-03-06T04:56:03.487Z,97584.02
2019-03-06T04:58:33.371Z,97585.39
2019-03-06T05:01:03.272Z,97589.23
2019-03-06T05:03:33.179Z,97589.03
2019-03-06T05:06:03.203Z,97583.01
2019-03-06T05:08:33.279Z,97573.88
2019-03-06T05:11:03.179Z,97562.87
2019-03-06T05:13:33.098Z,97552.27
2019-03-06T05:16:02.970Z,97546.48
2019-03-06T05:18:51.810Z,97546.97
2019-03-06T05:21:21.766Z,97538.14
2019-03-06T05:23:51.682Z,97533.57
2019-03-06T05:26:21.593Z,97536.03
2019-03-06T05:28:51.521Z,97532.98
2019-03-06T05:31:21.400Z,97519.25
2019-03-06T05:33:51.320Z,97528.25
2019-03-06T05:37:54.729Z,97529.16
2019-03-06T05:40:24.783Z,97517.26
2019-03-06T05:42:54.674Z,97518.36
2019-03-06T05:45:24.693Z,97529.81
2019-03-06T05:47:54.652Z,97520.17
2019-03-06T05:50:24.838Z,97523.94
2019-03-06T05:52:54.738Z,97515.13
2019-03-06T05:55:24.745Z,97508.69
2019-03-06T05:57:54.652Z,97499.69
2019-03-06T06:00:26.375Z,97500.67
2019-03-06T06:02:56.266Z,97487.67
2019-03-06T06:05:26.262Z,97490.75
2019-03-06T06:07:56.271Z,97487.87
2019-03-06T06:10:26.378Z,97490.69
2019-03-06T06:12:56.619Z,97501.17
2019-03-06T06:15:26.591Z,97499.77
2019-03-06T06:17:56.493Z,97493.03
2019-03-06T06:20:26.868Z,97496.25
2019-03-06T06:23:22.095Z,97492.11
2019-03-06T06:25:52.005Z,97491.72
2019-03-06T06:28:21.910Z,97494.63
2019-03-06T06:30:51.996Z,97496.00
2019-03-06T06:33:21.925Z,97492.62
2019-03-06T06:35:51.813Z,97491.64
2019-03-06T06:38:21.734Z,97495.71
2019-03-06T06:40:51.650Z,97484.59
2019-03-06T06:43:22.161Z,97479.41
2019-03-06T06:45:52.265Z,97470.12
2019-03-06T06:48:24.032Z,97462.00
2019-03-06T06:51:20.169Z,97451.12
2019-03-06T06:54:06.228Z,97457.02
2019-03-06T06:57:10.657Z,97460.17
2019-03-06T07:00:11.651Z,97450.95
2019-03-06T07:03:49.753Z,97452.30
2019-03-06T07:06:27.414Z,97439.94
2019-03-06T07:09:11.393Z,97447.20
2019-03-06T07:11:48.374Z,97439.59
2019-03-06T07:14:28.645Z,97438.73
2019-03-06T07:17:23.560Z,97438.37
2019-03-06T07:20:12.411Z,97438.52
2019-03-06T07:23:07.528Z,97431.35
2019-03-06T07:25:48.889Z,97430.13
2019-03-06T07:28:57.352Z,97420.73
2019-03-06T07:31:57.223Z,97422.31
2019-03-06T07:34:45.041Z,97427.34
2019-03-06T07:37:28.329Z,97430.75
2019-03-06T07:39:57.165Z,97437.67
2019-03-06T07:42:47.904Z,97441.69
2019-03-06T07:45:59.832Z,97440.29
2019-03-06T07:48:44.978Z,97430.60
2019-03-06T07:51:36.413Z,97421.46
2019-03-06T07:54:18.615Z,97420.95
2019-03-06T07:56:59.355Z,97413.59
2019-03-06T07:59:29.504Z,97417.66
2019-03-06T08:02:04.534Z,97406.83
2019-03-06T08:04:34.507Z,97399.11
2019-03-06T08:07:13.265Z,97401.34
2019-03-06T08:09:43.301Z,97406.09
2019-03-06T08:12:41.262Z,97403.44
2019-03-06T08:15:30.965Z,97399.49
2019-03-06T08:18:19.812Z,97398.38
2019-03-06T08:21:07.154Z,97392.25
2019-03-06T08:24:11.159Z,97400.11
2019-03-06T08:26:41.327Z,97396.09
2019-03-06T08:29:11.304Z,97398.66
2019-03-06T08:31:47.721Z,97390.05
2019-03-06T08:34:17.708Z,97384.28
2019-03-06T08:36:47.913Z,97388.53
2019-03-06T08:39:20.993Z,97392.48
2019-03-06T08:41:50.885Z,97383.37
2019-03-06T08:44:20.888Z,97370.66
2019-03-06T08:47:21.757Z,97367.91
2019-03-06T08:50:07.697Z,97370.53
2019-03-06T08:53:10.375Z,97371.41
2019-03-06T08:56:03.175Z,97360.71
2019-03-06T08:58:58.158Z,97366.30
2019-03-06T09:02:03.653Z,97355.52
2019-03-06T09:04:45.640Z,97350.19
2019-03-06T09:07:34.736Z,97339.62
2019-03-06T09:10:36.447Z,97330.64
2019-03-06T09:13:20.731Z,97329.98
2019-03-06T09:16:12.590Z,97334.75
2019-03-06T09:19:10.852Z,97326.97
2019-03-06T09:21:52.053Z,97318.05
2019-03-06T09:24:38.394Z,97319.45
2019-03-06T09:27:27.369Z,97316.76
2019-03-06T09:30:03.148Z,97319.06
2019-03-06T09:32:50.502Z,97314.59
2019-03-06T09:35:38.285Z,97312.71
2019-03-06T09:38:25.964Z,97300.29
2019-03-06T09:41:13.596Z,97293.38
2019-03-06T09:43:57.218Z,97281.67
2019-03-06T09:46:51.878Z,97266.95
2019-03-06T09:49:34.020Z,97256.38
2019-03-06T09:52:15.795Z,97249.39
2019-03-06T09:54:56.246Z,97247.16
2019-03-06T09:57:50.971Z,97244.10
2019-03-06T10:00:36.337Z,97234.04
2019-03-06T10:03:14.396Z,97227.70
2019-03-06T10:06:09.057Z,97227.02
2019-03-06T10:09:06.660Z,97223.44
2019-03-06T10:12:07.441Z,97218.98
2019-03-06T10:14:47.348Z,97207.93
2019-03-06T10:17:39.482Z,97205.05
2019-03-06T10:20:13.466Z,97200.69
2019-03-06T10:22:43.893Z,97199.66
2019-03-06T10:25:13.938Z,97194.66
2019-03-06T10:27:43.963Z,97194.95
2019-03-06T10:30:15.076Z,97188.39
2019-03-06T10:32:45.333Z,97185.86
2019-03-06T10:35:16.166Z,97176.50
2019-03-06T10:37:46.218Z,97172.92
2019-03-06T10:40:17.691Z,97164.14
2019-03-06T10:42:47.827Z,97163.71
2019-03-06T10:45:18.161Z,97162.38
2019-03-06T10:47:48.676Z,97158.66
2019-03-06T10:50:26.308Z,97146.62
2019-03-06T10:52:51.474Z,97146.72
2019-03-06T10:55:21.624Z,97137.66
2019-03-06T10:57:52.046Z,97141.27
2019-03-06T11:00:27.129Z,97134.41
2019-03-06T11:02:57.414Z,97130.56
2019-03-06T11:05:29.497Z,97137.70
2019-03-06T11:08:00.199Z,97128.19
2019-03-06T11:10:32.414Z,97134.53
2019-03-06T11:13:04.819Z,97136.41
2019-03-06T11:15:34.779Z,97132.12
2019-03-06T11:18:05.058Z,97130.25
2019-03-06T11:20:35.426Z,97124.88
2019-03-06T11:23:07.449Z,97126.22
2019-03-06T11:25:38.545Z,97113.66
2019-03-06T11:28:10.993Z,97105.05
2019-03-06T11:30:53.241Z,97101.35
2019-03-06T11:33:24.192Z,97096.84
2019-03-06T11:35:55.613Z,97093.52
2019-03-06T11:38:26.104Z,97089.56
2019-03-06T11:40:56.766Z,97074.39
2019-03-06T11:43:26.841Z,97078.59
2019-03-06T11:45:56.882Z,97074.82
2019-03-06T11:48:26.942Z,97065.89
2019-03-06T11:50:57.160Z,97058.83
2019-03-06T11:53:27.190Z,97051.16
2019-03-06T11:55:57.170Z,97045.33
2019-03-06T11:58:27.152Z,97041.84
2019-03-06T12:00:57.460Z,97043.19
2019-03-06T12:03:28.055Z,97045.43
2019-03-06T12:05:58.460Z,97040.30
2019-03-06T12:08:28.520Z,97031.23
2019-03-06T12:10:58.486Z,97034.86
2019-03-06T12:13:28.480Z,97025.74
2019-03-06T12:15:58.476Z,97018.56
2019-03-06T12:18:28.682Z,97009.16
2019-03-06T12:20:58.726Z,97000.27
2019-03-06T12:23:28.871Z,96992.34
2019-03-06T12:25:59.015Z,96983.15
2019-03-06T12:28:29.821Z,96972.72
2019-03-06T12:31:00.188Z,96970.61
2019-03-06T12:33:30.107Z,96973.92
2019-03-06T12:39:52.002Z,96952.16
2019-03-06T12:42:22.079Z,96945.52
2019-03-06T12:44:52.299Z,96946.38
2019-03-06T13:09:00.124Z,96898.32
2019-03-06T13:11:30.457Z,96883.52
2019-03-06T13:14:00.412Z,96888.43
2019-03-06T13:16:30.411Z,96887.91
2019-03-06T13:30:24.809Z,96852.41
2019-03-06T13:33:03.534Z,96852.38
2019-03-06T13:35:34.105Z,96850.36
2019-03-06T13:38:04.209Z,96849.48
2019-03-06T14:02:12.487Z,96829.92
2019-03-06T14:04:42.526Z,96829.33
2019-03-06T14:07:12.749Z,96820.17
2019-03-06T14:09:42.799Z,96819.89
2019-03-06T14:12:12.801Z,96815.69
2019-03-06T14:14:42.755Z,96815.61
2019-03-06T14:17:12.692Z,96813.48
2019-03-06T14:19:42.651Z,96807.98
2019-03-06T14:22:12.545Z,96812.14
2019-03-06T14:24:42.504Z,96806.59
2019-03-06T14:27:12.636Z,96803.75
2019-03-06T14:29:42.606Z,96805.36
2019-03-06T14:32:14.951Z,96802.03
2019-03-06T14:34:44.344Z,96798.52
2019-03-06T14:37:14.398Z,96791.09
2019-03-06T14:39:44.353Z,96798.13
2019-03-06T14:42:14.409Z,96797.20
2019-03-06T14:44:44.356Z,96790.27
2019-03-06T14:47:15.735Z,96792.44
2019-03-06T14:49:45.611Z,96795.05
2019-03-06T14:52:15.524Z,96795.38
2019-03-06T14:54:45.548Z,96786.58
2019-03-06T14:57:15.542Z,96781.20
2019-03-06T14:59:45.498Z,96776.30
2019-03-06T15:02:15.589Z,96781.11
2019-03-06T15:04:45.461Z,96773.89
2019-03-06T15:07:15.370Z,96768.30
2019-03-06T15:09:45.321Z,96770.38
2019-03-06T15:12:15.195Z,96774.78
2019-03-06T15:14:45.262Z,96767.59
2019-03-06T15:17:15.312Z,96769.84
2019-03-06T15:19:45.440Z,96767.55
2019-03-06T15:22:15.385Z,96758.33
2019-03-06T15:24:45.377Z,96758.09
2019-03-06T15:27:15.278Z,96757.59
2019-03-06T15:29:45.406Z,96754.52
2019-03-06T15:32:15.322Z,96750.45
2019-03-06T15:34:45.217Z,96751.20
2019-03-06T15:37:15.118Z,96751.29
2019-03-06T15:39:48.553Z,96748.72
2019-03-06T15:42:17.484Z,96737.41
2019-03-06T15:44:47.538Z,96737.19
2019-03-06T15:47:17.483Z,96744.66
2019-03-06T15:49:47.384Z,96742.09
2019-03-06T15:52:17.320Z,96744.67
2019-03-06T15:54:47.824Z,96747.52
2019-03-06T15:57:17.980Z,96748.03
2019-03-06T15:59:47.988Z,96745.97
2019-03-06T16:02:18.300Z,96737.75
2019-03-06T16:04:48.203Z,96735.88
2019-03-06T16:07:18.332Z,96730.44
2019-03-06T16:09:48.219Z,96722.70
2019-03-06T16:12:18.436Z,96727.33
2019-03-06T16:14:50.948Z,96729.09
2019-03-06T16:17:21.377Z,96728.98
2019-03-06T16:19:51.670Z,96717.92
2019-03-06T16:22:21.696Z,96710.45
2019-03-06T16:24:51.769Z,96711.92
2019-03-06T16:27:21.728Z,96715.81
2019-03-06T16:29:51.646Z,96710.95
2019-03-06T16:32:21.690Z,96708.63
2019-03-06T16:34:51.780Z,96704.23
2019-03-06T16:37:21.664Z,96709.76
2019-03-06T16:39:51.876Z,96711.71
2019-03-06T16:42:21.769Z,96715.41
2019-03-06T16:44:51.733Z,96719.84
2019-03-06T16:51:13.197Z,96717.72
2019-03-06T16:53:43.167Z,96718.55
2019-03-06T16:56:13.072Z,96714.75
2019-03-06T17:40:47.182Z,96689.16
2019-03-06T17:58:15.476Z,96698.53
2019-03-06T18:00:49.191Z,96697.64
2019-03-06T18:03:23.405Z,96699.30
2019-03-06T18:05:53.438Z,96691.53
2019-03-06T18:27:26.504Z,96622.83
2019-03-06T18:29:56.798Z,96612.13
2019-03-06T18:32:26.810Z,96607.20
2019-03-06T18:34:56.712Z,96606.63
2019-03-06T18:41:17.678Z,96596.58
2019-03-06T18:43:47.627Z,96582.89
2019-03-06T18:53:55.019Z,96573.95
2019-03-06T18:56:25.033Z,96578.22
2019-03-06T18:58:54.980Z,96587.19
2019-03-06T19:12:52.792Z,96575.34
2019-03-06T19:22:42.155Z,96568.04
2019-03-06T19:25:12.625Z,96565.44
2019-03-06T20:13:28.322Z,96524.99
2019-03-06T20:22:59.642Z,96512.48
2019-03-06T20:25:29.704Z,96510.64
2019-03-06T20:27:59.984Z,96506.97
2019-03-06T20:30:30.305Z,96500.66
2019-03-06T20:33:00.224Z,96491.95
2019-03-06T20:35:30.358Z,96492.39
2019-03-06T20:51:42.314Z,96496.64
2019-03-06T21:01:31.539Z,96477.03
2019-03-06T21:04:01.528Z,96478.05
2019-03-06T21:06:34.595Z,96476.11
2019-03-06T21:09:04.125Z,96479.75
2019-03-06T21:11:36.310Z,96485.18
2019-03-06T21:25:36.190Z,96479.47
2019-03-06T21:28:07.440Z,96494.15
2019-03-06T21:30:39.006Z,96486.45
2019-03-06T21:33:09.401Z,96482.02
2019-03-06T21:39:20.977Z,96480.45
2019-03-06T21:41:51.890Z,96471.38
2019-03-06T21:44:22.347Z,96466.50
2019-03-06T21:50:18.833Z,96450.86
2019-03-06T21:52:48.929Z,96453.11
2019-03-06T21:55:19.551Z,96451.83
2019-03-06T22:01:41.197Z,96437.33
2019-03-06T22:26:13.292Z,96399.41
2019-03-06T22:36:03.223Z,96410.60
2019-03-06T22:55:24.962Z,96432.90
2019-03-06T22:57:56.345Z,96429.05
2019-03-06T23:14:26.715Z,96415.30
2019-03-06T23:16:56.677Z,96413.55
2019-03-06T23:26:58.369Z,96407.92
2019-03-06T23:29:28.264Z,96397.48
2019-03-06T23:39:17.926Z,96380.67
2019-03-06T23:41:47.918Z,96381.94
2019-03-06T23:44:17.968Z,96378.22
2019-03-06T23:46:48.547Z,96379.70
2019-03-06T23:49:18.431Z,96375.05
2019-03-06T23:51:57.228Z,96389.86
2019-03-06T23:58:12.587Z,96383.00
